Terminal Aerodrome Forecast
Issued by NWS Charleston, WV

Home | Current Version | Previous Version | Text Only | Print | Product List | Glossary On
Versions: 1 2 3 4 5 6 7 8 9 10 11 12 13 14 15 16 17 18 19 20 21 22 23
079
FTUS41 KRLX 091725
TAFPKB
TAF
KPKB 091725Z 0918/1018 26008G14KT P6SM BKN035
     FM100000 26005KT P6SM OVC035
     FM101300 24004KT P6SM BKN030
     FM101700 25005KT P6SM BKN035=

USA.gov is the U.S. government's official web portal to all federal, state and local government web resources and services.